Time;durP1;ratioP1;P1;durP2;ratioP2;P2;SDS_P1;SDS_P2;PMS_P1;PMS_P2;Temp;Humidity;BMP_temperature;BMP_pressure;BME280_temperature;BME280_humidity;BME280_pressure;Samples;Min_cycle;Max_cycle;Signal;HPM_P1;HPM_P2
2022/12/13 00:00:13;;;;;;;2.65;0.95;;;13.20;99.90;;;;;;5055986;28;20029;-74
2022/12/13 00:02:43;;;;;;;2.78;1.52;;;13.20;99.90;;;;;;5053038;28;20032;-74
2022/12/13 00:05:11;;;;;;;1.95;0.90;;;13.20;99.90;;;;;;5059856;28;20048;-75
2022/12/13 00:07:37;;;;;;;1.73;0.60;;;13.20;99.90;;;;;;5055707;28;20417;-74
2022/12/13 00:10:04;;;;;;;1.90;0.80;;;13.30;99.90;;;;;;5059176;28;20067;-74
2022/12/13 00:12:30;;;;;;;1.60;0.70;;;13.20;99.90;;;;;;5071693;28;20052;-73
2022/12/13 00:14:56;;;;;;;1.08;0.35;;;13.20;99.90;;;;;;5055027;28;20451;-75
2022/12/13 00:17:22;;;;;;;1.77;0.70;;;13.30;99.90;;;;;;5074276;28;20164;-75
2022/12/13 00:19:48;;;;;;;2.08;0.70;;;13.20;99.90;;;;;;5053941;28;20481;-73
2022/12/13 00:22:15;;;;;;;1.48;0.70;;;13.20;99.90;;;;;;5052200;28;20068;-74
2022/12/13 00:24:41;;;;;;;1.67;1.05;;;13.30;99.90;;;;;;5057938;28;20043;-74
2022/12/13 00:27:07;;;;;;;1.67;0.65;;;13.20;99.90;;;;;;5058800;28;20041;-73
2022/12/13 00:29:33;;;;;;;2.30;1.00;;;13.30;99.90;;;;;;5052656;28;20044;-73
2022/12/13 00:31:59;;;;;;;2.88;1.25;;;13.30;99.90;;;;;;5046797;28;20108;-74
2022/12/13 00:34:25;;;;;;;3.88;1.48;;;13.10;99.90;;;;;;5055488;28;20127;-75
2022/12/13 00:36:53;;;;;;;3.25;1.80;;;12.90;99.90;;;;;;5058100;28;20037;-73
2022/12/13 00:39:19;;;;;;;3.00;1.48;;;12.80;99.90;;;;;;5056079;28;20083;-74
2022/12/13 00:41:45;;;;;;;3.28;1.48;;;12.90;99.90;;;;;;5052727;28;20037;-74
2022/12/13 00:44:12;;;;;;;3.55;1.80;;;12.90;99.90;;;;;;5057019;28;20050;-74
2022/12/13 00:46:39;;;;;;;3.65;2.35;;;12.90;99.90;;;;;;5063570;28;20484;-74
2022/12/13 00:49:05;;;;;;;3.65;1.80;;;12.80;99.90;;;;;;5054846;28;20044;-74
2022/12/13 00:51:32;;;;;;;3.10;1.40;;;12.90;99.90;;;;;;5055692;28;20582;-74
2022/12/13 00:53:59;;;;;;;3.63;1.55;;;13.00;99.90;;;;;;5044905;28;20919;-74
2022/12/13 00:56:27;;;;;;;3.60;1.40;;;13.00;99.90;;;;;;5051178;28;20655;-73
2022/12/13 00:58:54;;;;;;;3.30;1.40;;;13.10;99.90;;;;;;5059127;28;20047;-72
2022/12/13 01:01:28;;;;;;;2.85;1.00;;;13.10;99.90;;;;;;5068746;28;20365;-73
2022/12/13 01:03:55;;;;;;;2.88;1.35;;;13.00;99.90;;;;;;5056835;28;20042;-73
2022/12/13 01:06:28;;;;;;;3.20;1.40;;;12.90;99.90;;;;;;5054031;28;20063;-73
2022/12/13 01:08:54;;;;;;;3.08;1.40;;;13.20;99.90;;;;;;5053320;28;20032;-73
2022/12/13 01:11:20;;;;;;;3.80;1.52;;;12.90;99.90;;;;;;5051391;28;20067;-73
2022/12/13 01:13:46;;;;;;;4.18;1.80;;;12.70;99.90;;;;;;5052328;28;20033;-72
2022/12/13 01:16:12;;;;;;;5.10;1.92;;;12.60;99.90;;;;;;5054004;28;20045;-72
2022/12/13 01:18:39;;;;;;;3.03;1.23;;;12.60;99.90;;;;;;5058614;28;20036;-72
2022/12/13 01:21:14;;;;;;;3.55;1.45;;;12.60;99.90;;;;;;5049111;28;20270;-72
2022/12/13 01:23:41;;;;;;;3.33;1.60;;;12.60;99.90;;;;;;5056467;28;20119;-72
2022/12/13 01:26:10;;;;;;;2.80;1.60;;;12.60;99.90;;;;;;5054223;28;20522;-72
2022/12/13 01:28:36;;;;;;;4.03;1.40;;;12.70;99.90;;;;;;5050832;28;20095;-72
2022/12/13 01:31:08;;;;;;;3.63;1.95;;;12.80;99.90;;;;;;5054496;28;20037;-73
2022/12/13 01:33:35;;;;;;;3.83;1.40;;;12.70;99.90;;;;;;5052404;28;20751;-73
2022/12/13 01:36:03;;;;;;;2.63;1.30;;;12.60;99.90;;;;;;5061259;28;20036;-73
2022/12/13 01:38:29;;;;;;;3.55;1.83;;;12.80;99.90;;;;;;5032798;28;20120;-72
2022/12/13 01:40:58;;;;;;;2.67;1.35;;;12.70;99.90;;;;;;5034179;28;20145;-73
2022/12/13 01:43:48;;;;;;;3.05;1.42;;;12.70;99.90;;;;;;5037255;28;20067;-73
2022/12/13 01:46:16;;;;;;;3.90;1.70;;;12.70;99.90;;;;;;5038676;28;20053;-73
2022/12/13 01:48:48;;;;;;;3.05;1.40;;;12.80;99.90;;;;;;5041495;28;20051;-72
2022/12/13 01:51:18;;;;;;;3.78;1.60;;;12.70;99.90;;;;;;5034784;28;20057;-72
2022/12/13 01:53:48;;;;;;;3.85;1.48;;;12.90;99.90;;;;;;5052119;28;20117;-73
2022/12/13 01:56:19;;;;;;;3.67;1.50;;;12.90;99.90;;;;;;5029607;28;20045;-73
2022/12/13 01:58:47;;;;;;;2.60;1.10;;;12.70;99.90;;;;;;5025273;28;20053;-73
2022/12/13 02:01:13;;;;;;;5.22;1.60;;;12.60;99.90;;;;;;5035262;28;20045;-73
2022/12/13 02:03:39;;;;;;;3.95;2.00;;;12.50;99.90;;;;;;5036542;28;20139;-74
2022/12/13 02:06:05;;;;;;;3.95;1.80;;;12.50;99.90;;;;;;5017038;28;20726;-73
2022/12/13 02:08:31;;;;;;;5.00;1.65;;;12.40;99.90;;;;;;5039235;28;20102;-73
2022/12/13 02:10:58;;;;;;;4.38;1.17;;;12.50;99.90;;;;;;5042043;28;20064;-73
2022/12/13 02:13:24;;;;;;;4.80;1.30;;;12.50;99.90;;;;;;5036373;28;21158;-73
2022/12/13 02:15:59;;;;;;;3.42;1.65;;;12.50;99.90;;;;;;5041484;28;20124;-72
2022/12/13 02:19:21;;;;;;;4.07;1.55;;;12.50;99.90;;;;;;5051725;28;20413;-73
2022/12/13 02:22:11;;;;;;;4.63;2.17;;;12.50;99.90;;;;;;5006082;28;20037;-73
2022/12/13 02:25:07;;;;;;;4.10;1.45;;;12.50;99.90;;;;;;5009520;28;20385;-72
2022/12/13 02:27:49;;;;;;;4.82;2.10;;;12.40;99.90;;;;;;5052331;28;20032;-72
2022/12/13 02:30:33;;;;;;;3.42;1.55;;;12.30;99.90;;;;;;5057201;28;20056;-74
2022/12/13 02:33:23;;;;;;;4.40;1.80;;;12.30;99.90;;;;;;5060071;28;20048;-73
2022/12/13 02:35:52;;;;;;;3.72;1.55;;;12.30;99.90;;;;;;5066193;28;20037;-73
2022/12/13 02:38:28;;;;;;;4.88;2.15;;;12.50;99.90;;;;;;5050105;28;20060;-73
2022/12/13 02:41:01;;;;;;;4.78;2.08;;;12.50;99.90;;;;;;5034658;28;20981;-73
2022/12/13 02:43:44;;;;;;;2.90;1.40;;;12.40;99.90;;;;;;5052812;28;20133;-73
2022/12/13 02:46:11;;;;;;;3.67;1.80;;;12.40;99.90;;;;;;5060008;28;20119;-72
2022/12/13 02:48:41;;;;;;;3.65;1.60;;;12.30;99.90;;;;;;5054968;28;20643;-72
2022/12/13 02:51:10;;;;;;;3.58;1.73;;;12.30;99.90;;;;;;5054866;28;20044;-72
2022/12/13 02:53:38;;;;;;;4.25;1.70;;;12.20;99.90;;;;;;5056686;28;20066;-73
2022/12/13 02:56:04;;;;;;;3.65;1.70;;;12.20;99.90;;;;;;5056154;28;20048;-73
2022/12/13 02:58:36;;;;;;;3.88;1.13;;;12.40;99.90;;;;;;5057917;28;20337;-72
2022/12/13 03:01:15;;;;;;;3.40;0.93;;;12.30;99.90;;;;;;5059971;28;20369;-72
2022/12/13 03:03:55;;;;;;;3.60;1.35;;;12.50;99.90;;;;;;5055840;28;20040;-72
2022/12/13 03:07:17;;;;;;;3.65;1.40;;;12.50;99.90;;;;;;5058390;28;20119;-72
2022/12/13 03:09:46;;;;;;;3.17;1.20;;;12.60;99.90;;;;;;5046129;28;20130;-73
2022/12/13 03:15:26;;;;;;;2.40;1.08;;;12.70;99.90;;;;;;5054207;28;20043;-73
2022/12/13 03:18:05;;;;;;;2.85;1.00;;;12.90;99.90;;;;;;5058717;28;20029;-73
2022/12/13 03:20:31;;;;;;;3.05;1.10;;;13.00;99.90;;;;;;5055256;28;20039;-73
2022/12/13 03:22:58;;;;;;;3.03;0.93;;;13.00;99.90;;;;;;5056704;28;20103;-72
2022/12/13 03:25:28;;;;;;;3.15;0.90;;;13.10;99.90;;;;;;5057335;28;20094;-73
2022/12/13 03:27:54;;;;;;;3.92;1.08;;;13.30;99.90;;;;;;5059820;28;20479;-72
2022/12/13 03:30:20;;;;;;;2.53;0.95;;;13.10;99.90;;;;;;5053433;28;20024;-72
2022/12/13 03:32:46;;;;;;;2.78;1.00;;;13.20;99.90;;;;;;5055752;28;20103;-73
2022/12/13 03:35:12;;;;;;;2.63;1.20;;;13.20;99.90;;;;;;5055051;28;20036;-73
2022/12/13 03:37:38;;;;;;;3.75;1.25;;;13.20;99.90;;;;;;5054191;28;20037;-73
2022/12/13 03:40:04;;;;;;;2.90;0.82;;;13.10;99.90;;;;;;5054422;28;20036;-72
2022/12/13 03:42:30;;;;;;;3.25;1.40;;;13.20;99.90;;;;;;5053337;28;20070;-72
2022/12/13 03:44:57;;;;;;;3.50;1.15;;;13.30;99.90;;;;;;5044592;28;20127;-73
2022/12/13 03:47:23;;;;;;;;;;;13.40;99.90;;;;;;5041736;28;20060;-73
2022/12/13 03:49:49;;;;;;;4.53;1.10;;;13.50;99.90;;;;;;5054046;28;19944;-74
2022/12/13 03:52:15;;;;;;;3.15;1.08;;;13.60;99.90;;;;;;5056746;28;20569;-73
2022/12/13 03:54:41;;;;;;;2.35;0.90;;;13.50;99.90;;;;;;5051348;28;20037;-72
2022/12/13 03:57:07;;;;;;;2.83;0.98;;;13.50;99.90;;;;;;5048285;28;20036;-72
2022/12/13 03:59:33;;;;;;;6.70;1.00;;;13.40;99.90;;;;;;5059253;28;20075;-73
2022/12/13 04:01:58;;;;;;;2.47;0.88;;;13.30;99.90;;;;;;5056191;28;20045;-73
2022/12/13 04:04:24;;;;;;;3.72;0.93;;;13.20;99.90;;;;;;5052817;28;20051;-73
2022/12/13 04:06:50;;;;;;;3.83;1.25;;;13.10;99.90;;;;;;5054533;28;20060;-73
2022/12/13 04:09:16;;;;;;;4.47;1.10;;;13.00;99.90;;;;;;5034801;28;20036;-73
2022/12/13 04:14:26;;;;;;;2.38;1.00;;;13.00;99.90;;;;;;5059605;28;20036;-73
2022/12/13 04:16:52;;;;;;;2.97;0.82;;;13.00;99.90;;;;;;5055905;28;20036;-73
2022/12/13 04:19:18;;;;;;;5.07;1.02;;;13.00;99.90;;;;;;5049741;28;20033;-72
2022/12/13 04:21:44;;;;;;;2.97;1.00;;;13.10;99.90;;;;;;5058508;28;20127;-73
2022/12/13 04:24:10;;;;;;;2.92;1.00;;;13.10;99.90;;;;;;5036881;28;20112;-73
2022/12/13 04:26:36;;;;;;;3.75;1.05;;;13.00;99.90;;;;;;5054187;28;20040;-74
2022/12/13 04:29:02;;;;;;;3.17;0.82;;;13.20;99.90;;;;;;5053419;28;20468;-72
2022/12/13 04:31:28;;;;;;;4.75;1.30;;;13.30;99.90;;;;;;5051470;28;20059;-73
2022/12/13 04:33:55;;;;;;;3.90;1.63;;;13.00;99.90;;;;;;5052854;28;20489;-73
2022/12/13 04:36:20;;;;;;;;;;;12.80;99.90;;;;;;5056618;28;20068;-73
2022/12/13 04:38:46;;;;;;;3.13;1.10;;;12.70;99.90;;;;;;5052637;28;19940;-73
2022/12/13 04:41:17;;;;;;;3.17;1.10;;;12.60;99.90;;;;;;5053403;28;20033;-72
2022/12/13 04:43:49;;;;;;;3.50;1.00;;;12.50;99.90;;;;;;5055392;28;20365;-73
2022/12/13 04:46:15;;;;;;;3.28;1.10;;;12.40;99.90;;;;;;5053480;28;20045;-74
2022/12/13 04:48:41;;;;;;;3.50;1.00;;;12.30;99.90;;;;;;5059435;28;20033;-72
2022/12/13 04:51:07;;;;;;;4.15;1.77;;;12.30;99.90;;;;;;5052712;28;20127;-73
2022/12/13 04:53:33;;;;;;;3.75;1.50;;;12.20;99.90;;;;;;5059952;28;20112;-72
2022/12/13 04:56:02;;;;;;;3.92;1.33;;;12.10;99.90;;;;;;5058569;28;20040;-73
2022/12/13 04:58:27;;;;;;;5.90;1.67;;;12.00;99.90;;;;;;5052646;28;20067;-73
2022/12/13 05:00:54;;;;;;;4.57;1.70;;;11.90;99.90;;;;;;5050888;28;20072;-73
2022/12/13 05:03:21;;;;;;;4.85;1.60;;;11.90;99.90;;;;;;5032810;28;20036;-72
2022/12/13 05:05:47;;;;;;;5.70;1.70;;;11.80;99.90;;;;;;5038860;28;20025;-73
2022/12/13 05:08:13;;;;;;;3.38;1.30;;;11.80;99.90;;;;;;5016895;28;20039;-74
2022/12/13 05:10:38;;;;;;;4.85;1.92;;;11.70;99.90;;;;;;5037749;28;20034;-72
2022/12/13 05:13:05;;;;;;;4.25;1.00;;;11.70;99.90;;;;;;5036456;28;20390;-72
2022/12/13 05:15:32;;;;;;;3.55;1.20;;;11.70;99.90;;;;;;5030679;28;20088;-71
2022/12/13 05:18:03;;;;;;;;;;;11.70;99.90;;;;;;5031648;28;20399;-72
2022/12/13 05:20:29;;;;;;;4.50;1.08;;;11.90;99.90;;;;;;5041335;28;19916;-73
2022/12/13 05:22:56;;;;;;;3.47;1.10;;;11.90;99.90;;;;;;5039312;28;20745;-73
2022/12/13 05:25:24;;;;;;;3.35;1.95;;;12.00;99.90;;;;;;5038804;28;20050;-73
2022/12/13 05:27:50;;;;;;;4.97;1.50;;;11.90;99.90;;;;;;5031145;28;20037;-73
2022/12/13 05:30:16;;;;;;;3.72;1.20;;;11.90;99.90;;;;;;5045468;28;20390;-73
2022/12/13 05:32:42;;;;;;;4.30;1.88;;;11.80;99.90;;;;;;5049986;28;20044;-73
2022/12/13 05:35:08;;;;;;;3.80;1.20;;;11.80;99.90;;;;;;5034387;28;20037;-73
2022/12/13 05:37:34;;;;;;;4.15;1.50;;;11.90;99.90;;;;;;5035380;28;20068;-73
2022/12/13 05:40:01;;;;;;;4.72;1.50;;;11.90;99.90;;;;;;5033926;28;20041;-72
2022/12/13 05:42:26;;;;;;;4.63;1.63;;;11.90;99.90;;;;;;5041129;28;20040;-73
2022/12/13 05:44:52;;;;;;;5.20;1.90;;;11.90;99.90;;;;;;5036481;28;20473;-74
2022/12/13 05:47:18;;;;;;;3.10;1.63;;;11.90;99.90;;;;;;5039206;28;20033;-73
2022/12/13 05:49:44;;;;;;;5.57;1.40;;;12.00;99.90;;;;;;5035036;28;20037;-73
2022/12/13 05:52:20;;;;;;;4.38;1.60;;;11.90;99.90;;;;;;5027817;28;20048;-72
2022/12/13 05:54:46;;;;;;;4.00;1.50;;;11.90;99.90;;;;;;5031019;28;20385;-73
2022/12/13 05:57:13;;;;;;;7.07;1.70;;;11.80;99.90;;;;;;5031256;28;20037;-73
2022/12/13 05:59:39;;;;;;;5.55;1.38;;;11.80;99.90;;;;;;5029921;28;20056;-73
2022/12/13 06:02:04;;;;;;;4.90;1.63;;;11.90;99.90;;;;;;5033119;28;20504;-72
2022/12/13 06:04:30;;;;;;;7.43;2.25;;;11.90;99.90;;;;;;5035013;28;20037;-73
2022/12/13 06:06:56;;;;;;;4.18;1.52;;;11.90;99.90;;;;;;5049251;28;20065;-73
2022/12/13 06:09:22;;;;;;;3.42;1.50;;;11.90;99.90;;;;;;5023776;28;20042;-73
2022/12/13 06:11:48;;;;;;;4.13;1.45;;;12.00;99.90;;;;;;5046778;28;20084;-72
2022/12/13 06:14:15;;;;;;;6.80;1.65;;;12.00;99.90;;;;;;5033970;28;20072;-72
2022/12/13 06:16:41;;;;;;;5.70;1.42;;;12.10;99.90;;;;;;5035233;28;20033;-74
2022/12/13 06:19:07;;;;;;;3.92;1.60;;;12.20;99.90;;;;;;5030928;28;20144;-73
2022/12/13 06:21:34;;;;;;;5.90;1.63;;;12.10;99.90;;;;;;5034766;28;20095;-73
2022/12/13 06:23:59;;;;;;;4.72;1.60;;;12.10;99.90;;;;;;5031760;28;20034;-74
2022/12/13 06:26:25;;;;;;;4.43;1.40;;;12.60;99.90;;;;;;5050214;28;20083;-73
2022/12/13 06:28:51;;;;;;;5.60;1.52;;;12.60;99.90;;;;;;5030464;28;20067;-72
2022/12/13 06:31:17;;;;;;;4.28;1.35;;;12.70;99.90;;;;;;5033754;28;20043;-73
2022/12/13 06:33:43;;;;;;;7.00;1.60;;;12.70;99.90;;;;;;5037964;28;20037;-73
2022/12/13 06:36:09;;;;;;;7.93;1.38;;;12.60;99.90;;;;;;5040174;28;20465;-75
2022/12/13 06:38:35;;;;;;;6.25;1.92;;;12.60;99.90;;;;;;5045616;28;20040;-73
2022/12/13 06:41:13;;;;;;;5.15;1.45;;;12.60;99.90;;;;;;5036295;28;20044;-74
2022/12/13 06:43:43;;;;;;;3.80;1.75;;;12.60;99.90;;;;;;5043913;28;20051;-73
2022/12/13 06:46:09;;;;;;;5.93;1.88;;;12.60;99.90;;;;;;5022144;28;20033;-73
2022/12/13 06:48:35;;;;;;;5.03;1.50;;;12.60;99.90;;;;;;5040202;28;20195;-72
2022/12/13 06:51:03;;;;;;;5.88;2.00;;;12.70;99.90;;;;;;5050087;28;20150;-74
2022/12/13 06:53:30;;;;;;;5.25;1.50;;;12.80;99.90;;;;;;5054238;28;20032;-72
2022/12/13 06:55:55;;;;;;;;;;;12.80;99.90;;;;;;5055715;28;20045;-73
2022/12/13 06:58:22;;;;;;;6.35;1.63;;;13.00;99.90;;;;;;5050975;28;19917;-73
2022/12/13 07:00:47;;;;;;;6.55;1.40;;;13.10;99.90;;;;;;5058050;28;20025;-73
2022/12/13 07:03:14;;;;;;;6.60;1.17;;;13.10;99.90;;;;;;5053403;28;20414;-74
2022/12/13 07:05:40;;;;;;;4.15;1.30;;;13.20;99.90;;;;;;5062103;28;20108;-74
2022/12/13 07:08:06;;;;;;;5.30;1.67;;;13.30;99.90;;;;;;5056804;28;20530;-73
2022/12/13 07:10:32;;;;;;;5.60;1.65;;;13.50;99.90;;;;;;5056869;28;20457;-74
2022/12/13 07:12:58;;;;;;;6.35;1.15;;;13.40;99.90;;;;;;5057433;28;20480;-73
2022/12/13 07:15:23;;;;;;;6.10;1.70;;;13.50;99.90;;;;;;5062772;28;20106;-73
2022/12/13 07:17:50;;;;;;;5.05;1.35;;;13.40;99.90;;;;;;5058367;28;20032;-73
2022/12/13 07:20:18;;;;;;;6.82;2.15;;;13.40;99.90;;;;;;5054475;28;20036;-73
2022/12/13 07:22:45;;;;;;;6.72;1.60;;;13.40;99.90;;;;;;5058404;28;20078;-73
2022/12/13 07:25:10;;;;;;;6.15;1.08;;;13.40;99.90;;;;;;5053667;28;20233;-73
2022/12/13 07:27:36;;;;;;;5.20;2.17;;;13.40;99.90;;;;;;5059258;28;20123;-72
2022/12/13 07:30:03;;;;;;;8.48;2.83;;;13.40;99.90;;;;;;5056121;28;20029;-72
2022/12/13 07:32:28;;;;;;;6.93;2.10;;;13.40;99.90;;;;;;5054141;28;20142;-74
2022/12/13 07:34:54;;;;;;;8.80;2.22;;;13.40;99.90;;;;;;5060932;28;20118;-73
2022/12/13 07:37:20;;;;;;;7.85;2.60;;;13.30;99.90;;;;;;5060798;28;20040;-74
2022/12/13 07:39:46;;;;;;;7.63;2.70;;;13.20;99.90;;;;;;5057504;28;20049;-73
2022/12/13 07:42:12;;;;;;;6.45;2.50;;;13.10;99.90;;;;;;5056545;28;20036;-73
2022/12/13 07:44:37;;;;;;;11.63;2.25;;;13.10;99.90;;;;;;5059542;28;20049;-74
2022/12/13 07:47:03;;;;;;;8.63;2.35;;;13.10;99.90;;;;;;5052793;28;20037;-74
2022/12/13 07:49:29;;;;;;;7.00;2.17;;;13.00;99.90;;;;;;5053160;28;20040;-73
2022/12/13 07:51:55;;;;;;;8.55;2.97;;;13.00;99.90;;;;;;5057503;28;20549;-73
2022/12/13 07:54:21;;;;;;;7.75;3.35;;;13.00;99.90;;;;;;5061360;28;20148;-73
2022/12/13 07:56:47;;;;;;;5.95;1.48;;;13.00;99.90;;;;;;5054239;28;20029;-73
2022/12/13 07:59:13;;;;;;;6.40;1.90;;;13.20;99.90;;;;;;5047116;28;20040;-73
2022/12/13 08:01:39;;;;;;;6.07;1.80;;;13.40;99.90;;;;;;5043737;28;20052;-73
2022/12/13 08:04:06;;;;;;;5.75;1.75;;;13.70;99.90;;;;;;5058495;28;20052;-72
2022/12/13 08:06:36;;;;;;;8.52;1.70;;;13.90;99.90;;;;;;5055279;28;20056;-73
2022/12/13 08:09:05;;;;;;;8.02;2.00;;;14.10;99.90;;;;;;5060250;28;20036;-75
2022/12/13 08:11:31;;;;;;;4.25;1.52;;;14.20;99.90;;;;;;5056803;28;20025;-72
2022/12/13 08:13:57;;;;;;;7.28;2.20;;;14.20;99.90;;;;;;5054781;28;20560;-74
2022/12/13 08:16:23;;;;;;;5.50;1.70;;;14.30;99.90;;;;;;5027508;28;20060;-73
2022/12/13 08:18:49;;;;;;;8.18;1.88;;;14.30;99.90;;;;;;5052008;28;20041;-73
2022/12/13 08:21:18;;;;;;;8.75;2.17;;;14.30;99.90;;;;;;5053462;28;20048;-73
2022/12/13 08:23:44;;;;;;;5.13;1.90;;;14.30;99.90;;;;;;5052640;28;20051;-74
2022/12/13 08:26:09;;;;;;;6.20;1.77;;;14.40;99.90;;;;;;5062711;28;20036;-72
2022/12/13 08:28:36;;;;;;;5.25;1.52;;;14.50;99.90;;;;;;5054614;28;20040;-75
2022/12/13 08:31:05;;;;;;;5.22;1.48;;;14.60;99.90;;;;;;5055479;28;20054;-73
2022/12/13 08:33:33;;;;;;;6.63;1.70;;;14.70;99.90;;;;;;5052483;28;20037;-74
2022/12/13 08:36:10;;;;;;;7.78;2.42;;;14.80;99.90;;;;;;5057072;28;20044;-73
2022/12/13 08:38:36;;;;;;;7.63;1.83;;;14.80;99.90;;;;;;5054849;28;20404;-74
2022/12/13 08:41:03;;;;;;;6.60;1.90;;;14.90;99.90;;;;;;5056636;28;20040;-73
2022/12/13 08:43:29;;;;;;;10.07;2.10;;;14.90;99.90;;;;;;5068739;28;20036;-73
2022/12/13 08:45:55;;;;;;;6.72;1.95;;;14.90;99.90;;;;;;5042087;28;20047;-72
2022/12/13 08:48:21;;;;;;;9.32;1.92;;;14.90;99.90;;;;;;5057509;28;20367;-74
2022/12/13 08:50:47;;;;;;;6.78;1.85;;;14.90;99.90;;;;;;5054853;28;20048;-73
2022/12/13 08:53:13;;;;;;;6.97;1.65;;;15.00;99.90;;;;;;5058961;28;20033;-72
2022/12/13 08:55:38;;;;;;;5.45;1.60;;;15.10;99.90;;;;;;5052341;28;20029;-73
2022/12/13 08:58:08;;;;;;;6.40;1.88;;;15.20;99.90;;;;;;5057527;28;20071;-73
2022/12/13 09:00:35;;;;;;;7.40;2.17;;;15.20;99.90;;;;;;5056204;28;20028;-73
2022/12/13 09:03:02;;;;;;;7.57;1.52;;;15.20;99.90;;;;;;5058506;28;20039;-73
2022/12/13 09:05:29;;;;;;;5.18;1.40;;;15.30;99.90;;;;;;5057957;28;20056;-73
2022/12/13 09:07:57;;;;;;;5.68;1.60;;;15.30;99.90;;;;;;5059106;28;20376;-73
2022/12/13 09:10:23;;;;;;;8.30;2.10;;;15.30;99.90;;;;;;5052182;28;20174;-73
2022/12/13 09:12:50;;;;;;;5.93;2.00;;;15.40;99.90;;;;;;5073571;28;20041;-73
2022/12/13 09:15:16;;;;;;;7.57;2.40;;;15.40;99.90;;;;;;5065864;28;20899;-73
2022/12/13 09:17:41;;;;;;;5.90;2.10;;;15.40;99.90;;;;;;5052211;28;20034;-73
2022/12/13 09:20:10;;;;;;;6.38;1.40;;;15.50;99.90;;;;;;5052580;28;20372;-73
2022/12/13 09:22:37;;;;;;;7.80;2.42;;;15.50;99.90;;;;;;5058632;28;20036;-73
2022/12/13 09:25:04;;;;;;;6.80;2.30;;;15.60;99.90;;;;;;5033872;28;20488;-74
2022/12/13 09:27:31;;;;;;;;;;;15.70;99.90;;;;;;5054462;28;20036;-74
2022/12/13 09:29:57;;;;;;;9.15;2.10;;;15.80;99.90;;;;;;5050229;28;19944;-72
2022/12/13 09:32:24;;;;;;;4.82;1.75;;;15.80;99.90;;;;;;5046366;28;20044;-74
2022/12/13 09:34:50;;;;;;;5.40;2.08;;;15.80;99.90;;;;;;5061017;28;20155;-73
2022/12/13 09:37:16;;;;;;;6.88;1.80;;;15.80;99.90;;;;;;5059154;28;20045;-73
2022/12/13 09:39:42;;;;;;;6.00;1.80;;;15.90;99.90;;;;;;5056196;28;20091;-74
2022/12/13 09:42:20;;;;;;;7.03;1.85;;;15.90;99.90;;;;;;5056383;28;20037;-72
2022/12/13 09:44:51;;;;;;;7.10;2.45;;;15.90;99.90;;;;;;5054884;28;20175;-74
2022/12/13 09:47:39;;;;;;;7.85;2.13;;;16.00;99.90;;;;;;5055574;28;20562;-73
2022/12/13 09:50:32;;;;;;;6.25;2.03;;;16.00;99.90;;;;;;5058366;28;20041;-74
2022/12/13 09:53:00;;;;;;;5.88;1.17;;;16.10;99.90;;;;;;5060095;28;20685;-73
2022/12/13 09:55:38;;;;;;;6.53;1.83;;;16.10;99.90;;;;;;5058033;28;20037;-73
2022/12/13 09:58:27;;;;;;;5.88;1.13;;;16.20;99.90;;;;;;5043457;28;20053;-74
2022/12/13 10:00:55;;;;;;;6.93;1.60;;;16.20;99.90;;;;;;5043010;28;20036;-73
2022/12/13 10:03:24;;;;;;;6.53;1.38;;;16.30;99.90;;;;;;5045671;28;20399;-73
2022/12/13 10:05:57;;;;;;;4.35;1.05;;;16.40;99.90;;;;;;5053561;28;20030;-73
2022/12/13 10:08:37;;;;;;;5.22;1.60;;;16.50;99.90;;;;;;5053307;28;20036;-73
2022/12/13 10:11:04;;;;;;;5.50;1.35;;;16.50;99.90;;;;;;5051060;28;20944;-72
2022/12/13 10:13:48;;;;;;;3.17;1.10;;;16.50;99.90;;;;;;5053044;28;20098;-74
2022/12/13 10:16:35;;;;;;;7.10;1.55;;;16.50;99.90;;;;;;5045990;28;20925;-73
2022/12/13 10:19:12;;;;;;;7.82;1.60;;;16.40;99.90;;;;;;5054360;28;20048;-72
2022/12/13 10:21:41;;;;;;;7.05;1.38;;;16.40;99.90;;;;;;5053819;28;20373;-73
2022/12/13 10:24:29;;;;;;;6.80;1.50;;;16.30;99.90;;;;;;5062317;28;20116;-74
2022/12/13 10:27:11;;;;;;;4.82;1.33;;;16.20;99.90;;;;;;5056088;28;20040;-73
2022/12/13 10:29:59;;;;;;;5.28;1.25;;;16.20;99.90;;;;;;5048013;28;20048;-73
2022/12/13 10:32:26;;;;;;;6.68;1.52;;;16.30;99.90;;;;;;5047947;28;20048;-73
2022/12/13 10:34:54;;;;;;;4.75;1.40;;;16.30;99.90;;;;;;5062653;28;20037;-73
2022/12/13 10:37:23;;;;;;;6.38;1.45;;;16.40;99.90;;;;;;5032731;28;20031;-73
2022/12/13 10:39:49;;;;;;;6.45;1.77;;;16.40;99.90;;;;;;5069228;28;20040;-73
2022/12/13 10:42:18;;;;;;;7.53;1.55;;;16.50;99.90;;;;;;5055440;28;20071;-73
2022/12/13 10:44:44;;;;;;;6.32;1.42;;;16.40;99.90;;;;;;5056057;28;20047;-75
2022/12/13 10:47:24;;;;;;;5.07;1.73;;;16.30;99.90;;;;;;5041606;28;20041;-73
2022/12/13 10:49:56;;;;;;;6.55;1.60;;;16.30;99.90;;;;;;5050456;28;20602;-73
2022/12/13 10:52:40;;;;;;;4.40;1.52;;;16.20;99.90;;;;;;5053347;28;20067;-73
2022/12/13 10:55:31;;;;;;;6.22;1.48;;;16.20;99.90;;;;;;5055518;28;20040;-72
2022/12/13 10:58:05;;;;;;;5.15;1.23;;;16.10;99.90;;;;;;5040562;28;20060;-73
2022/12/13 11:00:45;;;;;;;4.72;1.45;;;16.00;99.90;;;;;;5045931;28;20425;-74
2022/12/13 11:03:30;;;;;;;5.47;1.23;;;15.90;99.90;;;;;;5042337;28;20041;-74
2022/12/13 11:06:03;;;;;;;7.50;1.80;;;16.00;99.90;;;;;;5035785;28;20057;-73
2022/12/13 11:08:29;;;;;;;6.13;1.30;;;15.90;99.90;;;;;;5053174;28;20392;-74
2022/12/13 11:10:59;;;;;;;7.57;2.10;;;15.90;99.90;;;;;;5050411;28;20037;-74
2022/12/13 11:13:50;;;;;;;4.50;1.60;;;15.90;99.90;;;;;;5053106;28;20071;-73
2022/12/13 11:16:38;;;;;;;7.88;1.63;;;15.90;99.90;;;;;;5048152;28;20100;-72
2022/12/13 11:19:15;;;;;;;6.40;1.08;;;16.00;99.90;;;;;;5057276;28;20098;-73
2022/12/13 11:21:47;;;;;;;5.15;1.35;;;16.00;99.90;;;;;;5057678;28;20052;-73
2022/12/13 11:24:28;;;;;;;7.10;2.13;;;16.10;99.90;;;;;;5053060;28;20036;-73
2022/12/13 11:27:39;;;;;;;6.72;2.22;;;16.20;99.90;;;;;;5048212;28;20037;-73
2022/12/13 11:30:29;;;;;;;16.45;5.68;;;16.20;99.90;;;;;;5060034;28;20030;-76
2022/12/13 11:33:00;;;;;;;14.85;5.45;;;16.00;99.90;;;;;;5058928;28;20491;-73
2022/12/13 11:35:56;;;;;;;12.38;5.70;;;16.10;99.90;;;;;;5049054;28;20567;-74
2022/12/13 11:38:22;;;;;;;14.98;5.30;;;16.30;99.90;;;;;;5054034;28;20033;-73
2022/12/13 11:40:58;;;;;;;18.23;4.47;;;16.40;99.90;;;;;;5052600;28;20037;-73
2022/12/13 11:43:50;;;;;;;17.67;5.40;;;16.30;99.90;;;;;;5048894;28;20036;-73
2022/12/13 11:46:28;;;;;;;13.55;5.35;;;16.30;99.90;;;;;;5046316;28;20485;-74
2022/12/13 11:49:02;;;;;;;10.45;4.35;;;16.40;99.90;;;;;;5052068;28;20028;-74
2022/12/13 11:51:39;;;;;;;13.10;4.22;;;16.50;99.90;;;;;;5046686;28;20103;-73
2022/12/13 11:54:36;;;;;;;19.73;8.40;;;16.70;99.90;;;;;;5042508;28;20048;-74
2022/12/13 11:57:12;;;;;;;16.77;7.68;;;16.60;99.90;;;;;;5031252;28;20048;-73
2022/12/13 11:59:56;;;;;;;22.73;8.60;;;16.60;99.90;;;;;;5031983;28;20420;-73
2022/12/13 12:02:40;;;;;;;29.52;9.60;;;16.70;99.90;;;;;;5044204;28;20045;-73
2022/12/13 12:05:27;;;;;;;20.55;9.55;;;16.80;99.90;;;;;;5043243;28;20050;-74
2022/12/13 12:08:24;;;;;;;24.02;9.65;;;17.00;99.90;;;;;;5030910;28;20040;-73
2022/12/13 12:11:08;;;;;;;25.80;10.95;;;17.00;99.90;;;;;;5033934;28;20452;-73
2022/12/13 12:13:42;;;;;;;24.60;9.40;;;17.10;99.90;;;;;;5050479;28;20384;-73
2022/12/13 12:16:29;;;;;;;23.55;8.57;;;17.20;99.90;;;;;;5050960;28;20392;-73
2022/12/13 12:18:55;;;;;;;20.38;8.50;;;17.10;99.90;;;;;;5053218;28;20056;-74
2022/12/13 12:21:33;;;;;;;21.15;8.18;;;17.10;99.90;;;;;;5055805;28;20445;-74
2022/12/13 12:24:32;;;;;;;15.98;7.43;;;17.10;99.90;;;;;;5050078;28;20041;-75
2022/12/13 12:27:10;;;;;;;17.30;7.65;;;17.20;99.90;;;;;;5051226;28;20107;-74
2022/12/13 12:29:53;;;;;;;17.10;6.32;;;17.20;99.90;;;;;;5048734;28;20040;-73
2022/12/13 12:32:28;;;;;;;17.95;6.38;;;17.20;99.90;;;;;;5047448;28;20036;-73
2022/12/13 12:35:15;;;;;;;14.50;6.78;;;17.30;99.90;;;;;;5053973;28;20047;-73
2022/12/13 12:38:08;;;;;;;14.05;5.75;;;17.40;99.90;;;;;;5057774;28;20029;-75
2022/12/13 12:40:40;;;;;;;13.85;6.60;;;17.50;99.90;;;;;;5049169;28;20453;-73
2022/12/13 12:43:21;;;;;;;8.50;3.03;;;17.60;99.90;;;;;;5047961;28;20041;-74
2022/12/13 12:46:24;;;;;;;12.10;3.78;;;17.70;99.90;;;;;;5056050;28;20471;-74
2022/12/13 12:49:20;;;;;;;21.40;9.02;;;17.80;99.90;;;;;;5055711;28;20439;-73
2022/12/13 12:52:24;;;;;;;21.10;8.75;;;17.50;99.90;;;;;;5030155;28;20034;-73
2022/12/13 12:55:14;;;;;;;25.75;9.38;;;17.40;99.90;;;;;;5047523;28;20036;-74
2022/12/13 12:57:43;;;;;;;;;;;17.10;99.90;;;;;;5048629;28;20028;-74
2022/12/13 13:00:20;;;;;;;17.52;7.15;;;17.20;99.90;;;;;;5060982;28;20368;-74
2022/12/13 13:03:11;;;;;;;22.48;10.20;;;17.30;99.90;;;;;;5056851;28;20488;-73
2022/12/13 13:05:40;;;;;;;24.90;10.57;;;17.30;99.90;;;;;;5028515;28;20049;-73
2022/12/13 13:08:35;;;;;;;25.92;10.18;;;17.40;99.90;;;;;;5028984;28;20444;-73
2022/12/13 13:11:04;;;;;;;24.27;11.35;;;17.20;99.90;;;;;;5026262;28;20060;-73
2022/12/13 13:13:33;;;;;;;26.70;10.80;;;17.20;99.90;;;;;;5052982;28;20029;-74